Terminal Aerodrome Forecast
Issued by NWS

Home | Current Version | Previous Version | Text Only | Print | Product List | Glossary On
Versions: 1 2 3 4 5 6 7 8 9 10 11 12 13 14 15 16 17 18 19 20 21 22 23
957
FTUS43 KBIS 290718 AAA
TAFMOT
TAF AMD
KMOT 290718Z 2907/3006 30018KT P6SM BKN025 BKN050
     FM291300 30019G29KT P6SM SCT025 BKN035
     FM291600 30020G30KT P6SM VCSH BKN050
     FM300100 33011KT P6SM FEW050 SCT080=

USA.gov is the U.S. government's official web portal to all federal, state and local government web resources and services.